sensor_id;sensor_type;location;lat;lon;timestamp;P1;durP1;ratioP1;P2;durP2;ratioP2
38427;SDS011;24211;49.980;19.776;2023-04-21T00:00:06;9.77;;;5.32;;
38427;SDS011;24211;49.980;19.776;2023-04-21T00:02:56;10.75;;;5.00;;
38427;SDS011;24211;49.980;19.776;2023-04-21T00:05:24;9.93;;;5.47;;
38427;SDS011;24211;49.980;19.776;2023-04-21T00:07:52;11.32;;;6.00;;
38427;SDS011;24211;49.980;19.776;2023-04-21T00:10:20;13.18;;;6.15;;
38427;SDS011;24211;49.980;19.776;2023-04-21T00:12:47;11.68;;;5.85;;
38427;SDS011;24211;49.980;19.776;2023-04-21T00:15:14;12.60;;;6.30;;
38427;SDS011;24211;49.980;19.776;2023-04-21T00:17:41;11.38;;;5.80;;
38427;SDS011;24211;49.980;19.776;2023-04-21T00:20:09;10.25;;;5.75;;
38427;SDS011;24211;49.980;19.776;2023-04-21T00:22:37;11.45;;;5.72;;
38427;SDS011;24211;49.980;19.776;2023-04-21T00:25:05;11.50;;;5.78;;
38427;SDS011;24211;49.980;19.776;2023-04-21T00:27:33;9.25;;;5.45;;
38427;SDS011;24211;49.980;19.776;2023-04-21T00:30:00;9.57;;;5.13;;
38427;SDS011;24211;49.980;19.776;2023-04-21T00:32:27;9.23;;;5.32;;
38427;SDS011;24211;49.980;19.776;2023-04-21T00:34:56;9.85;;;5.05;;
38427;SDS011;24211;49.980;19.776;2023-04-21T00:37:23;10.20;;;5.18;;
38427;SDS011;24211;49.980;19.776;2023-04-21T00:39:50;11.35;;;5.00;;
38427;SDS011;24211;49.980;19.776;2023-04-21T00:42:18;9.93;;;5.20;;
38427;SDS011;24211;49.980;19.776;2023-04-21T00:44:45;10.40;;;5.15;;
38427;SDS011;24211;49.980;19.776;2023-04-21T00:47:12;10.90;;;5.10;;
38427;SDS011;24211;49.980;19.776;2023-04-21T00:49:41;9.73;;;4.93;;
38427;SDS011;24211;49.980;19.776;2023-04-21T00:52:08;9.48;;;5.18;;
38427;SDS011;24211;49.980;19.776;2023-04-21T00:54:37;9.15;;;4.45;;
38427;SDS011;24211;49.980;19.776;2023-04-21T00:57:06;10.95;;;5.22;;
38427;SDS011;24211;49.980;19.776;2023-04-21T00:59:33;9.10;;;5.05;;
38427;SDS011;24211;49.980;19.776;2023-04-21T01:02:01;8.52;;;4.47;;
38427;SDS011;24211;49.980;19.776;2023-04-21T01:04:30;10.52;;;4.68;;
38427;SDS011;24211;49.980;19.776;2023-04-21T01:07:02;9.48;;;4.82;;
38427;SDS011;24211;49.980;19.776;2023-04-21T01:09:32;9.77;;;5.00;;
38427;SDS011;24211;49.980;19.776;2023-04-21T01:12:04;8.60;;;4.72;;
38427;SDS011;24211;49.980;19.776;2023-04-21T01:14:35;9.38;;;5.05;;
38427;SDS011;24211;49.980;19.776;2023-04-21T01:17:05;12.40;;;4.88;;
38427;SDS011;24211;49.980;19.776;2023-04-21T01:19:35;9.38;;;4.85;;
38427;SDS011;24211;49.980;19.776;2023-04-21T01:22:06;9.25;;;4.88;;
38427;SDS011;24211;49.980;19.776;2023-04-21T01:24:39;8.57;;;4.65;;
38427;SDS011;24211;49.980;19.776;2023-04-21T01:27:14;8.60;;;4.57;;
38427;SDS011;24211;49.980;19.776;2023-04-21T01:29:49;9.98;;;4.90;;
38427;SDS011;24211;49.980;19.776;2023-04-21T01:32:19;9.68;;;4.60;;
38427;SDS011;24211;49.980;19.776;2023-04-21T01:34:53;8.25;;;4.63;;
38427;SDS011;24211;49.980;19.776;2023-04-21T01:37:24;8.45;;;4.53;;
38427;SDS011;24211;49.980;19.776;2023-04-21T01:42:25;9.43;;;4.53;;
38427;SDS011;24211;49.980;19.776;2023-04-21T01:44:57;9.10;;;5.05;;
38427;SDS011;24211;49.980;19.776;2023-04-21T01:47:25;9.30;;;5.07;;
38427;SDS011;24211;49.980;19.776;2023-04-21T01:49:52;9.52;;;4.78;;
38427;SDS011;24211;49.980;19.776;2023-04-21T01:52:19;9.80;;;5.25;;
38427;SDS011;24211;49.980;19.776;2023-04-21T01:54:47;10.88;;;5.30;;
38427;SDS011;24211;49.980;19.776;2023-04-21T01:57:15;10.13;;;5.10;;
38427;SDS011;24211;49.980;19.776;2023-04-21T01:59:44;11.13;;;4.80;;
38427;SDS011;24211;49.980;19.776;2023-04-21T02:02:11;9.85;;;5.13;;
38427;SDS011;24211;49.980;19.776;2023-04-21T02:04:39;11.38;;;5.60;;
38427;SDS011;24211;49.980;19.776;2023-04-21T02:07:06;10.85;;;5.18;;
38427;SDS011;24211;49.980;19.776;2023-04-21T02:09:34;9.82;;;5.00;;
38427;SDS011;24211;49.980;19.776;2023-04-21T02:12:01;10.02;;;4.95;;
38427;SDS011;24211;49.980;19.776;2023-04-21T02:14:30;10.10;;;4.95;;
38427;SDS011;24211;49.980;19.776;2023-04-21T02:16:57;9.32;;;4.80;;
38427;SDS011;24211;49.980;19.776;2023-04-21T02:19:25;11.05;;;5.38;;
38427;SDS011;24211;49.980;19.776;2023-04-21T02:21:53;9.85;;;5.40;;
38427;SDS011;24211;49.980;19.776;2023-04-21T02:24:21;10.90;;;5.25;;
38427;SDS011;24211;49.980;19.776;2023-04-21T02:26:48;11.25;;;5.45;;
38427;SDS011;24211;49.980;19.776;2023-04-21T02:29:16;9.98;;;5.43;;
38427;SDS011;24211;49.980;19.776;2023-04-21T02:31:43;11.05;;;5.60;;
38427;SDS011;24211;49.980;19.776;2023-04-21T02:34:27;10.98;;;5.80;;
38427;SDS011;24211;49.980;19.776;2023-04-21T02:36:54;10.45;;;5.30;;
38427;SDS011;24211;49.980;19.776;2023-04-21T02:39:21;9.90;;;5.60;;
38427;SDS011;24211;49.980;19.776;2023-04-21T02:41:48;9.95;;;5.40;;
38427;SDS011;24211;49.980;19.776;2023-04-21T02:44:16;10.68;;;5.72;;
38427;SDS011;24211;49.980;19.776;2023-04-21T02:46:43;12.45;;;6.05;;
38427;SDS011;24211;49.980;19.776;2023-04-21T02:49:11;11.07;;;5.78;;
38427;SDS011;24211;49.980;19.776;2023-04-21T02:51:39;11.88;;;5.68;;
38427;SDS011;24211;49.980;19.776;2023-04-21T02:54:06;11.43;;;6.22;;
38427;SDS011;24211;49.980;19.776;2023-04-21T02:56:33;11.40;;;5.88;;
38427;SDS011;24211;49.980;19.776;2023-04-21T02:59:01;11.52;;;5.75;;
38427;SDS011;24211;49.980;19.776;2023-04-21T03:01:28;10.68;;;5.43;;
38427;SDS011;24211;49.980;19.776;2023-04-21T03:03:56;12.27;;;5.65;;
38427;SDS011;24211;49.980;19.776;2023-04-21T03:06:24;12.93;;;5.65;;
38427;SDS011;24211;49.980;19.776;2023-04-21T03:08:53;10.95;;;5.40;;
38427;SDS011;24211;49.980;19.776;2023-04-21T03:11:20;12.30;;;5.70;;
38427;SDS011;24211;49.980;19.776;2023-04-21T03:13:47;12.55;;;5.65;;
38427;SDS011;24211;49.980;19.776;2023-04-21T03:16:15;12.57;;;5.60;;
38427;SDS011;24211;49.980;19.776;2023-04-21T03:18:43;9.57;;;5.55;;
38427;SDS011;24211;49.980;19.776;2023-04-21T03:21:11;11.40;;;5.32;;
38427;SDS011;24211;49.980;19.776;2023-04-21T03:23:39;11.43;;;5.63;;
38427;SDS011;24211;49.980;19.776;2023-04-21T03:26:06;11.75;;;5.65;;
38427;SDS011;24211;49.980;19.776;2023-04-21T03:28:34;13.52;;;5.85;;
38427;SDS011;24211;49.980;19.776;2023-04-21T03:31:01;12.48;;;5.75;;
38427;SDS011;24211;49.980;19.776;2023-04-21T03:33:29;12.55;;;5.63;;
38427;SDS011;24211;49.980;19.776;2023-04-21T03:35:56;12.10;;;5.63;;
38427;SDS011;24211;49.980;19.776;2023-04-21T03:38:24;10.73;;;5.22;;
38427;SDS011;24211;49.980;19.776;2023-04-21T03:40:51;11.20;;;5.68;;
38427;SDS011;24211;49.980;19.776;2023-04-21T03:43:19;12.95;;;5.63;;
38427;SDS011;24211;49.980;19.776;2023-04-21T03:45:46;11.60;;;5.85;;
38427;SDS011;24211;49.980;19.776;2023-04-21T03:48:13;11.18;;;5.57;;
38427;SDS011;24211;49.980;19.776;2023-04-21T03:50:41;11.50;;;5.60;;
38427;SDS011;24211;49.980;19.776;2023-04-21T03:53:08;10.52;;;5.47;;
38427;SDS011;24211;49.980;19.776;2023-04-21T03:55:36;11.40;;;5.47;;
38427;SDS011;24211;49.980;19.776;2023-04-21T03:58:03;10.73;;;5.20;;
38427;SDS011;24211;49.980;19.776;2023-04-21T04:00:30;10.73;;;5.38;;
38427;SDS011;24211;49.980;19.776;2023-04-21T04:02:58;9.85;;;5.22;;
38427;SDS011;24211;49.980;19.776;2023-04-21T04:05:26;10.73;;;5.53;;
38427;SDS011;24211;49.980;19.776;2023-04-21T04:07:54;11.00;;;5.35;;
38427;SDS011;24211;49.980;19.776;2023-04-21T04:10:21;12.60;;;5.90;;
38427;SDS011;24211;49.980;19.776;2023-04-21T04:12:48;11.30;;;5.47;;
38427;SDS011;24211;49.980;19.776;2023-04-21T04:15:16;10.13;;;5.47;;
38427;SDS011;24211;49.980;19.776;2023-04-21T04:17:43;13.98;;;5.55;;
38427;SDS011;24211;49.980;19.776;2023-04-21T04:20:11;12.57;;;6.20;;
38427;SDS011;24211;49.980;19.776;2023-04-21T04:22:38;11.77;;;5.80;;
38427;SDS011;24211;49.980;19.776;2023-04-21T04:25:05;14.85;;;6.57;;
38427;SDS011;24211;49.980;19.776;2023-04-21T04:27:33;12.38;;;6.22;;
38427;SDS011;24211;49.980;19.776;2023-04-21T04:30:01;13.10;;;6.40;;
38427;SDS011;24211;49.980;19.776;2023-04-21T04:32:29;13.82;;;6.28;;
38427;SDS011;24211;49.980;19.776;2023-04-21T04:34:56;14.70;;;6.38;;
38427;SDS011;24211;49.980;19.776;2023-04-21T04:37:24;13.82;;;6.40;;
38427;SDS011;24211;49.980;19.776;2023-04-21T04:39:52;12.55;;;5.72;;
38427;SDS011;24211;49.980;19.776;2023-04-21T04:42:20;13.40;;;5.90;;
38427;SDS011;24211;49.980;19.776;2023-04-21T04:44:47;12.07;;;5.75;;
38427;SDS011;24211;49.980;19.776;2023-04-21T04:47:14;11.77;;;5.93;;
38427;SDS011;24211;49.980;19.776;2023-04-21T04:49:41;12.18;;;5.93;;
38427;SDS011;24211;49.980;19.776;2023-04-21T04:52:09;11.30;;;5.90;;
38427;SDS011;24211;49.980;19.776;2023-04-21T04:54:36;10.35;;;5.60;;
38427;SDS011;24211;49.980;19.776;2023-04-21T04:57:03;11.05;;;5.60;;
38427;SDS011;24211;49.980;19.776;2023-04-21T04:59:31;11.18;;;5.60;;
38427;SDS011;24211;49.980;19.776;2023-04-21T05:01:58;11.60;;;5.97;;
38427;SDS011;24211;49.980;19.776;2023-04-21T05:04:26;14.68;;;7.95;;
38427;SDS011;24211;49.980;19.776;2023-04-21T05:06:55;15.35;;;7.47;;
38427;SDS011;24211;49.980;19.776;2023-04-21T05:09:22;10.93;;;5.85;;
38427;SDS011;24211;49.980;19.776;2023-04-21T05:11:49;10.32;;;5.63;;
38427;SDS011;24211;49.980;19.776;2023-04-21T05:14:16;11.55;;;6.00;;
38427;SDS011;24211;49.980;19.776;2023-04-21T05:16:44;13.25;;;6.30;;
38427;SDS011;24211;49.980;19.776;2023-04-21T05:19:12;12.73;;;6.22;;
38427;SDS011;24211;49.980;19.776;2023-04-21T05:21:41;12.18;;;6.07;;
38427;SDS011;24211;49.980;19.776;2023-04-21T05:24:08;10.55;;;5.30;;
38427;SDS011;24211;49.980;19.776;2023-04-21T05:26:35;10.80;;;5.60;;
38427;SDS011;24211;49.980;19.776;2023-04-21T05:29:02;13.63;;;6.15;;
38427;SDS011;24211;49.980;19.776;2023-04-21T05:31:30;10.95;;;5.80;;
38427;SDS011;24211;49.980;19.776;2023-04-21T05:33:58;13.80;;;6.85;;
38427;SDS011;24211;49.980;19.776;2023-04-21T05:36:25;15.05;;;7.60;;
38427;SDS011;24211;49.980;19.776;2023-04-21T05:38:53;15.68;;;7.85;;
38427;SDS011;24211;49.980;19.776;2023-04-21T05:41:21;17.75;;;8.18;;
38427;SDS011;24211;49.980;19.776;2023-04-21T05:43:48;15.98;;;8.30;;
38427;SDS011;24211;49.980;19.776;2023-04-21T05:46:15;17.20;;;8.10;;
38427;SDS011;24211;49.980;19.776;2023-04-21T05:48:42;17.40;;;7.70;;
38427;SDS011;24211;49.980;19.776;2023-04-21T05:51:10;13.25;;;7.07;;
38427;SDS011;24211;49.980;19.776;2023-04-21T05:53:41;17.05;;;8.27;;
38427;SDS011;24211;49.980;19.776;2023-04-21T05:56:10;16.08;;;8.65;;
38427;SDS011;24211;49.980;19.776;2023-04-21T05:58:38;16.48;;;8.90;;
38427;SDS011;24211;49.980;19.776;2023-04-21T06:01:05;17.10;;;9.20;;
38427;SDS011;24211;49.980;19.776;2023-04-21T06:03:33;20.10;;;9.80;;
38427;SDS011;24211;49.980;19.776;2023-04-21T06:06:02;17.65;;;9.52;;
38427;SDS011;24211;49.980;19.776;2023-04-21T06:08:31;19.08;;;9.25;;
38427;SDS011;24211;49.980;19.776;2023-04-21T06:10:59;16.63;;;9.43;;
38427;SDS011;24211;49.980;19.776;2023-04-21T06:13:26;19.08;;;9.95;;
38427;SDS011;24211;49.980;19.776;2023-04-21T06:15:53;17.13;;;9.30;;
38427;SDS011;24211;49.980;19.776;2023-04-21T06:18:21;18.20;;;9.30;;
38427;SDS011;24211;49.980;19.776;2023-04-21T06:20:50;16.38;;;8.95;;
38427;SDS011;24211;49.980;19.776;2023-04-21T06:23:18;18.55;;;8.85;;
38427;SDS011;24211;49.980;19.776;2023-04-21T06:25:57;17.98;;;9.32;;
38427;SDS011;24211;49.980;19.776;2023-04-21T06:28:30;14.95;;;8.57;;
38427;SDS011;24211;49.980;19.776;2023-04-21T06:30:59;15.52;;;7.95;;
38427;SDS011;24211;49.980;19.776;2023-04-21T06:33:27;17.67;;;8.68;;
38427;SDS011;24211;49.980;19.776;2023-04-21T06:35:56;16.80;;;8.38;;
38427;SDS011;24211;49.980;19.776;2023-04-21T06:38:23;16.63;;;8.90;;
38427;SDS011;24211;49.980;19.776;2023-04-21T06:40:50;14.55;;;8.10;;
38427;SDS011;24211;49.980;19.776;2023-04-21T06:43:18;17.38;;;9.00;;
38427;SDS011;24211;49.980;19.776;2023-04-21T06:45:45;16.20;;;9.00;;
38427;SDS011;24211;49.980;19.776;2023-04-21T06:48:13;16.23;;;8.63;;
38427;SDS011;24211;49.980;19.776;2023-04-21T06:50:40;18.73;;;9.35;;
38427;SDS011;24211;49.980;19.776;2023-04-21T06:53:09;16.40;;;8.93;;
38427;SDS011;24211;49.980;19.776;2023-04-21T06:55:37;17.05;;;8.50;;
38427;SDS011;24211;49.980;19.776;2023-04-21T06:58:04;16.02;;;8.27;;
38427;SDS011;24211;49.980;19.776;2023-04-21T07:00:32;15.32;;;8.25;;
38427;SDS011;24211;49.980;19.776;2023-04-21T07:02:59;18.27;;;8.75;;
38427;SDS011;24211;49.980;19.776;2023-04-21T07:05:29;18.38;;;9.25;;
38427;SDS011;24211;49.980;19.776;2023-04-21T07:07:56;15.55;;;7.95;;
38427;SDS011;24211;49.980;19.776;2023-04-21T07:10:28;14.40;;;7.63;;
38427;SDS011;24211;49.980;19.776;2023-04-21T07:12:55;16.13;;;7.82;;
38427;SDS011;24211;49.980;19.776;2023-04-21T07:15:23;15.65;;;7.60;;
38427;SDS011;24211;49.980;19.776;2023-04-21T07:17:50;14.30;;;7.30;;
38427;SDS011;24211;49.980;19.776;2023-04-21T07:20:17;14.30;;;7.07;;
38427;SDS011;24211;49.980;19.776;2023-04-21T07:22:45;14.52;;;7.47;;
38427;SDS011;24211;49.980;19.776;2023-04-21T07:25:12;13.30;;;6.45;;
38427;SDS011;24211;49.980;19.776;2023-04-21T07:27:40;14.48;;;7.63;;
38427;SDS011;24211;49.980;19.776;2023-04-21T07:30:07;14.63;;;7.03;;
38427;SDS011;24211;49.980;19.776;2023-04-21T07:32:35;12.05;;;6.68;;
38427;SDS011;24211;49.980;19.776;2023-04-21T07:35:05;13.80;;;7.35;;
38427;SDS011;24211;49.980;19.776;2023-04-21T07:37:32;15.85;;;6.95;;
38427;SDS011;24211;49.980;19.776;2023-04-21T07:40:00;13.88;;;7.10;;
38427;SDS011;24211;49.980;19.776;2023-04-21T07:42:27;16.40;;;8.18;;
38427;SDS011;24211;49.980;19.776;2023-04-21T07:44:55;16.80;;;8.13;;
38427;SDS011;24211;49.980;19.776;2023-04-21T07:47:23;19.27;;;7.95;;
38427;SDS011;24211;49.980;19.776;2023-04-21T07:49:51;15.88;;;7.53;;
38427;SDS011;24211;49.980;19.776;2023-04-21T07:52:18;15.63;;;7.75;;
38427;SDS011;24211;49.980;19.776;2023-04-21T07:54:46;13.93;;;7.20;;
38427;SDS011;24211;49.980;19.776;2023-04-21T07:57:13;13.85;;;6.82;;
38427;SDS011;24211;49.980;19.776;2023-04-21T07:59:41;13.88;;;7.10;;
38427;SDS011;24211;49.980;19.776;2023-04-21T08:02:08;14.80;;;6.82;;
38427;SDS011;24211;49.980;19.776;2023-04-21T08:04:36;14.75;;;7.10;;
38427;SDS011;24211;49.980;19.776;2023-04-21T08:07:04;17.15;;;8.35;;
38427;SDS011;24211;49.980;19.776;2023-04-21T08:09:31;18.45;;;8.38;;
38427;SDS011;24211;49.980;19.776;2023-04-21T08:11:58;13.80;;;7.68;;
38427;SDS011;24211;49.980;19.776;2023-04-21T08:14:29;15.85;;;7.55;;
38427;SDS011;24211;49.980;19.776;2023-04-21T08:16:57;17.73;;;6.95;;
38427;SDS011;24211;49.980;19.776;2023-04-21T08:19:25;13.88;;;6.80;;
38427;SDS011;24211;49.980;19.776;2023-04-21T08:21:53;16.60;;;6.68;;
38427;SDS011;24211;49.980;19.776;2023-04-21T08:24:20;13.23;;;6.68;;
38427;SDS011;24211;49.980;19.776;2023-04-21T08:26:48;12.25;;;6.00;;
38427;SDS011;24211;49.980;19.776;2023-04-21T08:29:16;10.20;;;5.70;;
38427;SDS011;24211;49.980;19.776;2023-04-21T08:31:43;15.30;;;6.15;;
38427;SDS011;24211;49.980;19.776;2023-04-21T08:34:11;11.90;;;5.68;;
38427;SDS011;24211;49.980;19.776;2023-04-21T08:36:39;12.57;;;6.28;;
38427;SDS011;24211;49.980;19.776;2023-04-21T08:39:08;12.20;;;6.32;;
38427;SDS011;24211;49.980;19.776;2023-04-21T08:41:37;10.48;;;5.25;;
38427;SDS011;24211;49.980;19.776;2023-04-21T08:44:09;13.73;;;5.43;;
38427;SDS011;24211;49.980;19.776;2023-04-21T08:46:37;12.60;;;5.93;;
38427;SDS011;24211;49.980;19.776;2023-04-21T08:49:05;11.13;;;5.05;;
38427;SDS011;24211;49.980;19.776;2023-04-21T08:51:35;11.70;;;4.60;;
38427;SDS011;24211;49.980;19.776;2023-04-21T08:54:03;8.38;;;4.32;;
38427;SDS011;24211;49.980;19.776;2023-04-21T08:56:31;12.45;;;5.80;;
38427;SDS011;24211;49.980;19.776;2023-04-21T08:58:58;12.45;;;5.28;;
38427;SDS011;24211;49.980;19.776;2023-04-21T09:01:25;12.52;;;5.60;;
38427;SDS011;24211;49.980;19.776;2023-04-21T09:03:53;12.40;;;4.75;;
38427;SDS011;24211;49.980;19.776;2023-04-21T09:06:42;9.88;;;4.72;;
38427;SDS011;24211;49.980;19.776;2023-04-21T09:09:11;8.55;;;4.28;;
38427;SDS011;24211;49.980;19.776;2023-04-21T09:11:38;6.88;;;3.92;;
38427;SDS011;24211;49.980;19.776;2023-04-21T09:14:06;9.75;;;4.78;;
38427;SDS011;24211;49.980;19.776;2023-04-21T09:16:34;9.20;;;4.65;;
38427;SDS011;24211;49.980;19.776;2023-04-21T09:19:02;12.60;;;5.07;;
38427;SDS011;24211;49.980;19.776;2023-04-21T09:21:42;8.15;;;4.38;;
38427;SDS011;24211;49.980;19.776;2023-04-21T09:24:10;9.55;;;4.57;;
38427;SDS011;24211;49.980;19.776;2023-04-21T09:26:38;10.85;;;5.40;;
38427;SDS011;24211;49.980;19.776;2023-04-21T09:29:08;9.70;;;5.65;;
38427;SDS011;24211;49.980;19.776;2023-04-21T09:31:35;13.05;;;5.57;;
38427;SDS011;24211;49.980;19.776;2023-04-21T09:34:10;11.57;;;5.93;;
38427;SDS011;24211;49.980;19.776;2023-04-21T09:37:09;9.43;;;5.28;;
38427;SDS011;24211;49.980;19.776;2023-04-21T09:39:45;7.75;;;4.38;;
38427;SDS011;24211;49.980;19.776;2023-04-21T09:42:32;9.18;;;5.07;;
38427;SDS011;24211;49.980;19.776;2023-04-21T09:45:06;10.23;;;5.57;;
38427;SDS011;24211;49.980;19.776;2023-04-21T09:47:42;11.45;;;4.75;;
38427;SDS011;24211;49.980;19.776;2023-04-21T09:50:17;10.05;;;4.80;;
38427;SDS011;24211;49.980;19.776;2023-04-21T09:53:10;11.38;;;5.57;;
38427;SDS011;24211;49.980;19.776;2023-04-21T09:55:48;8.60;;;4.78;;
38427;SDS011;24211;49.980;19.776;2023-04-21T10:00:50;8.68;;;4.40;;
38427;SDS011;24211;49.980;19.776;2023-04-21T10:03:21;7.05;;;4.15;;
38427;SDS011;24211;49.980;19.776;2023-04-21T10:05:53;8.25;;;4.28;;
38427;SDS011;24211;49.980;19.776;2023-04-21T10:08:21;8.30;;;5.28;;
38427;SDS011;24211;49.980;19.776;2023-04-21T10:10:48;11.00;;;4.95;;
38427;SDS011;24211;49.980;19.776;2023-04-21T10:13:18;10.00;;;5.53;;
38427;SDS011;24211;49.980;19.776;2023-04-21T10:15:46;10.55;;;4.53;;
38427;SDS011;24211;49.980;19.776;2023-04-21T10:18:14;9.50;;;3.78;;
38427;SDS011;24211;49.980;19.776;2023-04-21T10:23:35;7.43;;;3.90;;
38427;SDS011;24211;49.980;19.776;2023-04-21T10:26:13;10.57;;;4.55;;
38427;SDS011;24211;49.980;19.776;2023-04-21T10:29:01;7.45;;;4.40;;
38427;SDS011;24211;49.980;19.776;2023-04-21T10:31:32;6.97;;;3.95;;
38427;SDS011;24211;49.980;19.776;2023-04-21T10:41:56;10.13;;;5.00;;
38427;SDS011;24211;49.980;19.776;2023-04-21T10:50:12;10.50;;;4.95;;
38427;SDS011;24211;49.980;19.776;2023-04-21T10:52:51;8.52;;;4.78;;
38427;SDS011;24211;49.980;19.776;2023-04-21T10:55:27;10.48;;;4.82;;
38427;SDS011;24211;49.980;19.776;2023-04-21T10:57:55;7.93;;;4.40;;
38427;SDS011;24211;49.980;19.776;2023-04-21T11:00:28;9.70;;;4.68;;
38427;SDS011;24211;49.980;19.776;2023-04-21T11:03:03;8.60;;;4.50;;
38427;SDS011;24211;49.980;19.776;2023-04-21T11:05:36;7.00;;;4.10;;
38427;SDS011;24211;49.980;19.776;2023-04-21T11:08:07;9.43;;;3.58;;
38427;SDS011;24211;49.980;19.776;2023-04-21T11:10:42;6.82;;;3.83;;
38427;SDS011;24211;49.980;19.776;2023-04-21T11:13:15;7.13;;;3.40;;
38427;SDS011;24211;49.980;19.776;2023-04-21T11:15:54;5.13;;;2.83;;
38427;SDS011;24211;49.980;19.776;2023-04-21T11:18:36;7.40;;;3.50;;
38427;SDS011;24211;49.980;19.776;2023-04-21T11:21:13;6.03;;;3.42;;
38427;SDS011;24211;49.980;19.776;2023-04-21T11:23:48;5.50;;;2.95;;
38427;SDS011;24211;49.980;19.776;2023-04-21T11:26:18;7.82;;;3.70;;
38427;SDS011;24211;49.980;19.776;2023-04-21T11:29:00;5.70;;;3.30;;
38427;SDS011;24211;49.980;19.776;2023-04-21T11:31:33;5.47;;;3.10;;
38427;SDS011;24211;49.980;19.776;2023-04-21T11:34:06;6.00;;;3.03;;
38427;SDS011;24211;49.980;19.776;2023-04-21T11:36:35;5.32;;;2.50;;
38427;SDS011;24211;49.980;19.776;2023-04-21T11:39:11;4.88;;;2.80;;
38427;SDS011;24211;49.980;19.776;2023-04-21T11:41:42;5.33;;;2.50;;
38427;SDS011;24211;49.980;19.776;2023-04-21T11:44:14;5.05;;;2.75;;
38427;SDS011;24211;49.980;19.776;2023-04-21T11:50:01;8.05;;;3.03;;
38427;SDS011;24211;49.980;19.776;2023-04-21T11:52:30;5.28;;;3.25;;
38427;SDS011;24211;49.980;19.776;2023-04-21T11:55:11;4.93;;;2.70;;
38427;SDS011;24211;49.980;19.776;2023-04-21T11:57:43;5.00;;;2.90;;
38427;SDS011;24211;49.980;19.776;2023-04-21T12:00:11;6.93;;;2.67;;
38427;SDS011;24211;49.980;19.776;2023-04-21T12:02:42;5.70;;;2.97;;
38427;SDS011;24211;49.980;19.776;2023-04-21T12:05:11;5.90;;;3.00;;
38427;SDS011;24211;49.980;19.776;2023-04-21T12:07:42;5.13;;;2.45;;
38427;SDS011;24211;49.980;19.776;2023-04-21T12:10:15;4.78;;;2.53;;
38427;SDS011;24211;49.980;19.776;2023-04-21T12:15:17;5.18;;;2.80;;
38427;SDS011;24211;49.980;19.776;2023-04-21T12:17:49;7.38;;;3.60;;
38427;SDS011;24211;49.980;19.776;2023-04-21T12:20:20;8.30;;;3.88;;
38427;SDS011;24211;49.980;19.776;2023-04-21T12:22:50;7.90;;;4.10;;
38427;SDS011;24211;49.980;19.776;2023-04-21T12:25:18;7.10;;;3.42;;
38427;SDS011;24211;49.980;19.776;2023-04-21T12:30:18;5.07;;;2.83;;
38427;SDS011;24211;49.980;19.776;2023-04-21T12:32:46;5.70;;;3.10;;
38427;SDS011;24211;49.980;19.776;2023-04-21T12:35:14;5.60;;;3.30;;
38427;SDS011;24211;49.980;19.776;2023-04-21T12:37:41;5.57;;;2.78;;
38427;SDS011;24211;49.980;19.776;2023-04-21T12:40:10;7.07;;;3.60;;
38427;SDS011;24211;49.980;19.776;2023-04-21T12:42:37;5.53;;;3.10;;
38427;SDS011;24211;49.980;19.776;2023-04-21T12:45:05;4.93;;;2.47;;
38427;SDS011;24211;49.980;19.776;2023-04-21T12:47:33;6.78;;;3.00;;
38427;SDS011;24211;49.980;19.776;2023-04-21T12:50:03;5.95;;;3.25;;
38427;SDS011;24211;49.980;19.776;2023-04-21T12:52:31;5.40;;;2.80;;
38427;SDS011;24211;49.980;19.776;2023-04-21T12:54:58;5.35;;;3.08;;
38427;SDS011;24211;49.980;19.776;2023-04-21T12:57:25;4.95;;;2.80;;
38427;SDS011;24211;49.980;19.776;2023-04-21T12:59:53;6.18;;;2.72;;
38427;SDS011;24211;49.980;19.776;2023-04-21T13:02:21;4.53;;;2.42;;
38427;SDS011;24211;49.980;19.776;2023-04-21T13:04:49;5.05;;;2.67;;
38427;SDS011;24211;49.980;19.776;2023-04-21T13:07:16;4.28;;;2.30;;
38427;SDS011;24211;49.980;19.776;2023-04-21T13:09:47;6.38;;;2.72;;
38427;SDS011;24211;49.980;19.776;2023-04-21T13:12:14;4.40;;;2.55;;
38427;SDS011;24211;49.980;19.776;2023-04-21T13:14:41;7.32;;;2.45;;
38427;SDS011;24211;49.980;19.776;2023-04-21T13:17:08;4.07;;;2.10;;
38427;SDS011;24211;49.980;19.776;2023-04-21T13:19:37;3.80;;;2.33;;
38427;SDS011;24211;49.980;19.776;2023-04-21T13:22:04;4.05;;;2.20;;
38427;SDS011;24211;49.980;19.776;2023-04-21T13:24:31;4.68;;;2.38;;
38427;SDS011;24211;49.980;19.776;2023-04-21T13:26:59;5.72;;;2.38;;
38427;SDS011;24211;49.980;19.776;2023-04-21T13:29:27;5.70;;;2.40;;
38427;SDS011;24211;49.980;19.776;2023-04-21T13:31:59;4.93;;;2.70;;
38427;SDS011;24211;49.980;19.776;2023-04-21T13:34:29;4.70;;;2.20;;
38427;SDS011;24211;49.980;19.776;2023-04-21T13:36:59;4.43;;;2.55;;
38427;SDS011;24211;49.980;19.776;2023-04-21T13:39:27;4.88;;;2.63;;
38427;SDS011;24211;49.980;19.776;2023-04-21T13:41:55;4.80;;;2.97;;
38427;SDS011;24211;49.980;19.776;2023-04-21T13:44:23;5.32;;;2.80;;
38427;SDS011;24211;49.980;19.776;2023-04-21T13:46:51;6.03;;;2.80;;
38427;SDS011;24211;49.980;19.776;2023-04-21T13:49:19;5.75;;;2.22;;
38427;SDS011;24211;49.980;19.776;2023-04-21T13:51:46;6.22;;;2.42;;
38427;SDS011;24211;49.980;19.776;2023-04-21T13:54:14;4.43;;;2.20;;
38427;SDS011;24211;49.980;19.776;2023-04-21T13:56:41;3.85;;;2.20;;
38427;SDS011;24211;49.980;19.776;2023-04-21T13:59:08;3.72;;;1.85;;
38427;SDS011;24211;49.980;19.776;2023-04-21T14:01:36;4.22;;;2.20;;
38427;SDS011;24211;49.980;19.776;2023-04-21T14:04:04;4.25;;;2.20;;
38427;SDS011;24211;49.980;19.776;2023-04-21T14:06:32;6.30;;;2.60;;
38427;SDS011;24211;49.980;19.776;2023-04-21T14:09:00;3.80;;;2.20;;
38427;SDS011;24211;49.980;19.776;2023-04-21T14:11:27;4.50;;;2.08;;
38427;SDS011;24211;49.980;19.776;2023-04-21T14:13:54;3.88;;;1.95;;
38427;SDS011;24211;49.980;19.776;2023-04-21T14:16:35;4.40;;;2.38;;
38427;SDS011;24211;49.980;19.776;2023-04-21T14:19:03;3.63;;;2.15;;
38427;SDS011;24211;49.980;19.776;2023-04-21T14:21:30;4.25;;;2.20;;
38427;SDS011;24211;49.980;19.776;2023-04-21T14:23:58;3.80;;;2.15;;
38427;SDS011;24211;49.980;19.776;2023-04-21T14:26:25;4.53;;;2.35;;
38427;SDS011;24211;49.980;19.776;2023-04-21T14:28:53;4.13;;;2.30;;
38427;SDS011;24211;49.980;19.776;2023-04-21T14:31:20;3.90;;;2.10;;
38427;SDS011;24211;49.980;19.776;2023-04-21T14:33:48;3.38;;;2.10;;
38427;SDS011;24211;49.980;19.776;2023-04-21T14:36:15;4.35;;;2.22;;
38427;SDS011;24211;49.980;19.776;2023-04-21T14:38:43;4.57;;;2.00;;
38427;SDS011;24211;49.980;19.776;2023-04-21T14:41:10;3.95;;;1.95;;
38427;SDS011;24211;49.980;19.776;2023-04-21T14:43:38;5.38;;;2.42;;
38427;SDS011;24211;49.980;19.776;2023-04-21T14:46:05;4.53;;;2.10;;
38427;SDS011;24211;49.980;19.776;2023-04-21T14:48:33;4.05;;;2.30;;
38427;SDS011;24211;49.980;19.776;2023-04-21T14:51:00;6.18;;;2.50;;
38427;SDS011;24211;49.980;19.776;2023-04-21T14:53:28;3.80;;;2.00;;
38427;SDS011;24211;49.980;19.776;2023-04-21T14:55:55;3.95;;;2.20;;
38427;SDS011;24211;49.980;19.776;2023-04-21T14:58:22;5.90;;;2.75;;
38427;SDS011;24211;49.980;19.776;2023-04-21T15:00:50;5.70;;;2.33;;
38427;SDS011;24211;49.980;19.776;2023-04-21T15:03:17;4.13;;;2.15;;
38427;SDS011;24211;49.980;19.776;2023-04-21T15:05:45;7.10;;;2.90;;
38427;SDS011;24211;49.980;19.776;2023-04-21T15:08:12;5.15;;;2.70;;